sensor_id;sensor_type;location;lat;lon;timestamp;P1;durP1;ratioP1;P2;durP2;ratioP2
20381;SDS011;10350;51.280;12.400;2024-01-11T00:01:17;33.38;;;30.08;;
20381;SDS011;10350;51.280;12.400;2024-01-11T00:03:43;32.22;;;29.35;;
20381;SDS011;10350;51.280;12.400;2024-01-11T00:06:09;33.45;;;30.02;;
20381;SDS011;10350;51.280;12.400;2024-01-11T00:08:35;33.13;;;30.35;;
20381;SDS011;10350;51.280;12.400;2024-01-11T00:11:01;32.10;;;29.38;;
20381;SDS011;10350;51.280;12.400;2024-01-11T00:13:28;34.63;;;31.38;;
20381;SDS011;10350;51.280;12.400;2024-01-11T00:15:54;29.88;;;27.35;;
20381;SDS011;10350;51.280;12.400;2024-01-11T00:18:20;33.45;;;30.58;;
20381;SDS011;10350;51.280;12.400;2024-01-11T00:20:46;31.83;;;29.60;;
20381;SDS011;10350;51.280;12.400;2024-01-11T00:23:12;30.65;;;28.38;;
20381;SDS011;10350;51.280;12.400;2024-01-11T00:25:38;30.60;;;27.65;;
20381;SDS011;10350;51.280;12.400;2024-01-11T00:28:03;30.75;;;28.00;;
20381;SDS011;10350;51.280;12.400;2024-01-11T00:30:29;31.45;;;29.20;;
20381;SDS011;10350;51.280;12.400;2024-01-11T00:32:55;30.67;;;28.38;;
20381;SDS011;10350;51.280;12.400;2024-01-11T00:35:21;47.28;;;30.90;;
20381;SDS011;10350;51.280;12.400;2024-01-11T00:37:47;28.60;;;26.25;;
20381;SDS011;10350;51.280;12.400;2024-01-11T00:40:14;34.88;;;31.48;;
20381;SDS011;10350;51.280;12.400;2024-01-11T00:42:40;32.03;;;29.50;;
20381;SDS011;10350;51.280;12.400;2024-01-11T00:45:06;33.60;;;30.83;;
20381;SDS011;10350;51.280;12.400;2024-01-11T00:47:32;30.83;;;28.02;;
20381;SDS011;10350;51.280;12.400;2024-01-11T00:49:57;33.22;;;30.23;;
20381;SDS011;10350;51.280;12.400;2024-01-11T00:52:23;33.97;;;30.58;;
20381;SDS011;10350;51.280;12.400;2024-01-11T00:54:49;31.27;;;28.83;;
20381;SDS011;10350;51.280;12.400;2024-01-11T00:57:15;30.17;;;27.00;;
20381;SDS011;10350;51.280;12.400;2024-01-11T00:59:41;33.65;;;30.77;;
20381;SDS011;10350;51.280;12.400;2024-01-11T01:02:07;30.05;;;27.13;;
20381;SDS011;10350;51.280;12.400;2024-01-11T01:04:33;28.05;;;26.20;;
20381;SDS011;10350;51.280;12.400;2024-01-11T01:07:02;31.77;;;28.58;;
20381;SDS011;10350;51.280;12.400;2024-01-11T01:09:29;30.77;;;27.77;;
20381;SDS011;10350;51.280;12.400;2024-01-11T01:11:55;30.33;;;28.33;;
20381;SDS011;10350;51.280;12.400;2024-01-11T01:14:21;29.70;;;26.55;;
20381;SDS011;10350;51.280;12.400;2024-01-11T01:16:47;33.65;;;28.95;;
20381;SDS011;10350;51.280;12.400;2024-01-11T01:19:13;28.95;;;26.85;;
20381;SDS011;10350;51.280;12.400;2024-01-11T01:21:39;34.35;;;30.52;;
20381;SDS011;10350;51.280;12.400;2024-01-11T01:24:05;33.92;;;30.95;;
20381;SDS011;10350;51.280;12.400;2024-01-11T01:26:31;30.45;;;27.67;;
20381;SDS011;10350;51.280;12.400;2024-01-11T01:28:57;29.58;;;27.27;;
20381;SDS011;10350;51.280;12.400;2024-01-11T01:31:23;31.65;;;29.02;;
20381;SDS011;10350;51.280;12.400;2024-01-11T01:33:49;33.08;;;30.42;;
20381;SDS011;10350;51.280;12.400;2024-01-11T01:36:15;32.58;;;29.90;;
20381;SDS011;10350;51.280;12.400;2024-01-11T01:38:40;32.53;;;29.90;;
20381;SDS011;10350;51.280;12.400;2024-01-11T01:41:06;31.38;;;28.48;;
20381;SDS011;10350;51.280;12.400;2024-01-11T01:43:32;31.70;;;29.08;;
20381;SDS011;10350;51.280;12.400;2024-01-11T01:45:58;29.63;;;27.52;;
20381;SDS011;10350;51.280;12.400;2024-01-11T01:48:24;33.47;;;30.67;;
20381;SDS011;10350;51.280;12.400;2024-01-11T01:50:50;32.88;;;29.73;;
20381;SDS011;10350;51.280;12.400;2024-01-11T01:53:17;29.90;;;27.40;;
20381;SDS011;10350;51.280;12.400;2024-01-11T01:55:44;33.42;;;30.85;;
20381;SDS011;10350;51.280;12.400;2024-01-11T01:58:10;30.05;;;27.30;;
20381;SDS011;10350;51.280;12.400;2024-01-11T02:00:36;28.17;;;26.08;;
20381;SDS011;10350;51.280;12.400;2024-01-11T02:03:02;30.08;;;27.92;;
20381;SDS011;10350;51.280;12.400;2024-01-11T02:05:28;29.95;;;27.23;;
20381;SDS011;10350;51.280;12.400;2024-01-11T02:07:54;33.92;;;30.95;;
20381;SDS011;10350;51.280;12.400;2024-01-11T02:10:21;30.60;;;28.08;;
20381;SDS011;10350;51.280;12.400;2024-01-11T02:12:47;30.23;;;27.85;;
20381;SDS011;10350;51.280;12.400;2024-01-11T02:15:14;30.25;;;27.65;;
20381;SDS011;10350;51.280;12.400;2024-01-11T02:17:40;28.17;;;25.95;;
20381;SDS011;10350;51.280;12.400;2024-01-11T02:20:06;30.75;;;28.55;;
20381;SDS011;10350;51.280;12.400;2024-01-11T02:22:34;29.80;;;27.50;;
20381;SDS011;10350;51.280;12.400;2024-01-11T02:25:01;32.47;;;29.50;;
20381;SDS011;10350;51.280;12.400;2024-01-11T02:27:27;31.83;;;28.73;;
20381;SDS011;10350;51.280;12.400;2024-01-11T02:29:53;29.10;;;26.90;;
20381;SDS011;10350;51.280;12.400;2024-01-11T02:32:19;32.85;;;29.80;;
20381;SDS011;10350;51.280;12.400;2024-01-11T02:34:45;34.15;;;31.40;;
20381;SDS011;10350;51.280;12.400;2024-01-11T02:37:11;30.13;;;27.42;;
20381;SDS011;10350;51.280;12.400;2024-01-11T02:39:38;32.50;;;29.92;;
20381;SDS011;10350;51.280;12.400;2024-01-11T02:42:04;31.52;;;29.42;;
20381;SDS011;10350;51.280;12.400;2024-01-11T02:44:30;29.48;;;27.52;;
20381;SDS011;10350;51.280;12.400;2024-01-11T02:46:56;32.40;;;29.35;;
20381;SDS011;10350;51.280;12.400;2024-01-11T02:49:22;33.08;;;30.05;;
20381;SDS011;10350;51.280;12.400;2024-01-11T02:51:48;30.92;;;28.48;;
20381;SDS011;10350;51.280;12.400;2024-01-11T02:54:14;29.88;;;27.20;;
20381;SDS011;10350;51.280;12.400;2024-01-11T02:56:39;32.35;;;29.67;;
20381;SDS011;10350;51.280;12.400;2024-01-11T02:59:05;31.88;;;29.30;;
20381;SDS011;10350;51.280;12.400;2024-01-11T03:01:31;34.88;;;31.65;;
20381;SDS011;10350;51.280;12.400;2024-01-11T03:03:57;30.42;;;27.35;;
20381;SDS011;10350;51.280;12.400;2024-01-11T03:06:23;31.02;;;28.42;;
20381;SDS011;10350;51.280;12.400;2024-01-11T03:08:49;32.78;;;30.25;;
20381;SDS011;10350;51.280;12.400;2024-01-11T03:11:15;30.10;;;27.58;;
20381;SDS011;10350;51.280;12.400;2024-01-11T03:13:41;30.80;;;28.05;;
20381;SDS011;10350;51.280;12.400;2024-01-11T03:16:07;29.85;;;27.65;;
20381;SDS011;10350;51.280;12.400;2024-01-11T03:18:33;30.58;;;28.17;;
20381;SDS011;10350;51.280;12.400;2024-01-11T03:20:59;33.40;;;30.88;;
20381;SDS011;10350;51.280;12.400;2024-01-11T03:23:25;30.98;;;27.58;;
20381;SDS011;10350;51.280;12.400;2024-01-11T03:25:51;30.25;;;27.55;;
20381;SDS011;10350;51.280;12.400;2024-01-11T03:28:17;31.08;;;28.15;;
20381;SDS011;10350;51.280;12.400;2024-01-11T03:30:43;33.45;;;30.05;;
20381;SDS011;10350;51.280;12.400;2024-01-11T03:33:09;34.22;;;30.95;;
20381;SDS011;10350;51.280;12.400;2024-01-11T03:35:35;34.30;;;31.55;;
20381;SDS011;10350;51.280;12.400;2024-01-11T03:38:03;31.98;;;29.40;;
20381;SDS011;10350;51.280;12.400;2024-01-11T03:40:30;31.63;;;29.42;;
20381;SDS011;10350;51.280;12.400;2024-01-11T03:42:56;31.75;;;29.30;;
20381;SDS011;10350;51.280;12.400;2024-01-11T03:45:22;30.90;;;28.27;;
20381;SDS011;10350;51.280;12.400;2024-01-11T03:47:48;31.92;;;29.65;;
20381;SDS011;10350;51.280;12.400;2024-01-11T03:50:14;30.85;;;28.02;;
20381;SDS011;10350;51.280;12.400;2024-01-11T03:52:40;32.25;;;28.90;;
20381;SDS011;10350;51.280;12.400;2024-01-11T03:55:06;29.17;;;26.20;;
20381;SDS011;10350;51.280;12.400;2024-01-11T03:57:32;31.52;;;28.85;;
20381;SDS011;10350;51.280;12.400;2024-01-11T03:59:58;33.15;;;29.80;;
20381;SDS011;10350;51.280;12.400;2024-01-11T04:02:24;29.90;;;27.25;;
20381;SDS011;10350;51.280;12.400;2024-01-11T04:04:50;29.88;;;27.85;;
20381;SDS011;10350;51.280;12.400;2024-01-11T04:07:16;30.65;;;28.33;;
20381;SDS011;10350;51.280;12.400;2024-01-11T04:09:42;36.90;;;29.95;;
20381;SDS011;10350;51.280;12.400;2024-01-11T04:12:08;30.58;;;28.35;;
20381;SDS011;10350;51.280;12.400;2024-01-11T04:14:37;27.92;;;26.13;;
20381;SDS011;10350;51.280;12.400;2024-01-11T04:17:03;30.08;;;27.85;;
20381;SDS011;10350;51.280;12.400;2024-01-11T04:19:29;28.95;;;26.88;;
20381;SDS011;10350;51.280;12.400;2024-01-11T04:21:55;30.67;;;28.05;;
20381;SDS011;10350;51.280;12.400;2024-01-11T04:24:21;31.83;;;28.42;;
20381;SDS011;10350;51.280;12.400;2024-01-11T04:26:47;30.15;;;28.13;;
20381;SDS011;10350;51.280;12.400;2024-01-11T04:29:13;29.73;;;27.38;;
20381;SDS011;10350;51.280;12.400;2024-01-11T04:31:39;32.03;;;29.48;;
20381;SDS011;10350;51.280;12.400;2024-01-11T04:34:04;29.52;;;27.08;;
20381;SDS011;10350;51.280;12.400;2024-01-11T04:36:30;30.13;;;27.42;;
20381;SDS011;10350;51.280;12.400;2024-01-11T04:38:56;32.83;;;30.10;;
20381;SDS011;10350;51.280;12.400;2024-01-11T04:41:22;29.15;;;27.15;;
20381;SDS011;10350;51.280;12.400;2024-01-11T04:43:48;32.22;;;28.85;;
20381;SDS011;10350;51.280;12.400;2024-01-11T04:48:40;29.38;;;27.52;;
20381;SDS011;10350;51.280;12.400;2024-01-11T04:51:06;32.33;;;29.27;;
20381;SDS011;10350;51.280;12.400;2024-01-11T04:53:32;31.58;;;28.83;;
20381;SDS011;10350;51.280;12.400;2024-01-11T04:55:58;29.80;;;27.48;;
20381;SDS011;10350;51.280;12.400;2024-01-11T04:58:24;33.60;;;30.10;;
20381;SDS011;10350;51.280;12.400;2024-01-11T05:00:49;32.47;;;29.85;;
20381;SDS011;10350;51.280;12.400;2024-01-11T05:03:15;28.45;;;26.48;;
20381;SDS011;10350;51.280;12.400;2024-01-11T05:05:41;36.08;;;27.63;;
20381;SDS011;10350;51.280;12.400;2024-01-11T05:08:07;31.70;;;29.58;;
20381;SDS011;10350;51.280;12.400;2024-01-11T05:10:35;32.90;;;30.27;;
20381;SDS011;10350;51.280;12.400;2024-01-11T05:13:01;32.30;;;29.23;;
20381;SDS011;10350;51.280;12.400;2024-01-11T05:15:27;31.67;;;29.17;;
20381;SDS011;10350;51.280;12.400;2024-01-11T05:17:54;30.08;;;28.15;;
20381;SDS011;10350;51.280;12.400;2024-01-11T05:20:21;31.70;;;29.08;;
20381;SDS011;10350;51.280;12.400;2024-01-11T05:22:47;32.53;;;29.33;;
20381;SDS011;10350;51.280;12.400;2024-01-11T05:25:13;33.85;;;30.48;;
20381;SDS011;10350;51.280;12.400;2024-01-11T05:27:39;40.38;;;32.78;;
20381;SDS011;10350;51.280;12.400;2024-01-11T05:30:05;30.27;;;28.15;;
20381;SDS011;10350;51.280;12.400;2024-01-11T05:32:31;30.60;;;28.35;;
20381;SDS011;10350;51.280;12.400;2024-01-11T05:34:57;32.53;;;29.80;;
20381;SDS011;10350;51.280;12.400;2024-01-11T05:37:23;31.17;;;28.90;;
20381;SDS011;10350;51.280;12.400;2024-01-11T05:39:49;32.42;;;29.73;;
20381;SDS011;10350;51.280;12.400;2024-01-11T05:42:15;29.45;;;26.80;;
20381;SDS011;10350;51.280;12.400;2024-01-11T05:44:41;30.08;;;27.75;;
20381;SDS011;10350;51.280;12.400;2024-01-11T05:47:07;30.15;;;27.77;;
20381;SDS011;10350;51.280;12.400;2024-01-11T05:49:33;32.58;;;30.08;;
20381;SDS011;10350;51.280;12.400;2024-01-11T05:51:58;33.00;;;29.88;;
20381;SDS011;10350;51.280;12.400;2024-01-11T05:54:24;30.80;;;28.38;;
20381;SDS011;10350;51.280;12.400;2024-01-11T05:56:52;33.97;;;31.08;;
20381;SDS011;10350;51.280;12.400;2024-01-11T05:59:21;31.10;;;28.55;;
20381;SDS011;10350;51.280;12.400;2024-01-11T06:01:47;32.78;;;30.00;;
20381;SDS011;10350;51.280;12.400;2024-01-11T06:04:12;31.38;;;28.77;;
20381;SDS011;10350;51.280;12.400;2024-01-11T06:06:39;30.40;;;28.13;;
20381;SDS011;10350;51.280;12.400;2024-01-11T06:09:05;37.08;;;33.22;;
20381;SDS011;10350;51.280;12.400;2024-01-11T06:11:31;31.63;;;28.75;;
20381;SDS011;10350;51.280;12.400;2024-01-11T06:13:57;30.85;;;27.92;;
20381;SDS011;10350;51.280;12.400;2024-01-11T06:16:23;38.05;;;32.13;;
20381;SDS011;10350;51.280;12.400;2024-01-11T06:18:50;33.83;;;31.00;;
20381;SDS011;10350;51.280;12.400;2024-01-11T06:21:15;30.88;;;28.35;;
20381;SDS011;10350;51.280;12.400;2024-01-11T06:23:43;32.33;;;29.77;;
20381;SDS011;10350;51.280;12.400;2024-01-11T06:26:09;31.52;;;28.55;;
20381;SDS011;10350;51.280;12.400;2024-01-11T06:28:35;31.70;;;29.13;;
20381;SDS011;10350;51.280;12.400;2024-01-11T06:31:01;31.48;;;28.70;;
20381;SDS011;10350;51.280;12.400;2024-01-11T06:33:27;30.77;;;28.23;;
20381;SDS011;10350;51.280;12.400;2024-01-11T06:35:53;33.45;;;30.30;;
20381;SDS011;10350;51.280;12.400;2024-01-11T06:38:19;30.50;;;27.70;;
20381;SDS011;10350;51.280;12.400;2024-01-11T06:40:45;32.17;;;29.40;;
20381;SDS011;10350;51.280;12.400;2024-01-11T06:43:11;33.08;;;29.98;;
20381;SDS011;10350;51.280;12.400;2024-01-11T06:45:37;33.35;;;30.38;;
20381;SDS011;10350;51.280;12.400;2024-01-11T06:48:03;31.77;;;28.95;;
20381;SDS011;10350;51.280;12.400;2024-01-11T06:50:29;33.58;;;28.75;;
20381;SDS011;10350;51.280;12.400;2024-01-11T06:52:55;34.53;;;31.40;;
20381;SDS011;10350;51.280;12.400;2024-01-11T06:55:21;33.65;;;31.05;;
20381;SDS011;10350;51.280;12.400;2024-01-11T06:57:47;33.58;;;30.77;;
20381;SDS011;10350;51.280;12.400;2024-01-11T07:00:13;39.28;;;30.85;;
20381;SDS011;10350;51.280;12.400;2024-01-11T07:02:39;35.78;;;31.33;;
20381;SDS011;10350;51.280;12.400;2024-01-11T07:05:05;33.40;;;29.67;;
20381;SDS011;10350;51.280;12.400;2024-01-11T07:07:31;32.22;;;29.45;;
20381;SDS011;10350;51.280;12.400;2024-01-11T07:09:57;35.35;;;31.73;;
20381;SDS011;10350;51.280;12.400;2024-01-11T07:12:23;30.30;;;27.90;;
20381;SDS011;10350;51.280;12.400;2024-01-11T07:14:50;34.30;;;30.70;;
20381;SDS011;10350;51.280;12.400;2024-01-11T07:17:16;32.28;;;28.80;;
20381;SDS011;10350;51.280;12.400;2024-01-11T07:19:42;32.97;;;30.30;;
20381;SDS011;10350;51.280;12.400;2024-01-11T07:22:08;37.65;;;30.52;;
20381;SDS011;10350;51.280;12.400;2024-01-11T07:24:34;31.75;;;28.40;;
20381;SDS011;10350;51.280;12.400;2024-01-11T07:27:06;34.30;;;29.90;;
20381;SDS011;10350;51.280;12.400;2024-01-11T07:29:35;31.40;;;28.55;;
20381;SDS011;10350;51.280;12.400;2024-01-11T07:32:01;32.17;;;29.23;;
20381;SDS011;10350;51.280;12.400;2024-01-11T07:34:28;35.00;;;31.42;;
20381;SDS011;10350;51.280;12.400;2024-01-11T07:36:54;38.88;;;29.15;;
20381;SDS011;10350;51.280;12.400;2024-01-11T07:39:21;34.05;;;30.77;;
20381;SDS011;10350;51.280;12.400;2024-01-11T07:41:47;32.17;;;29.17;;
20381;SDS011;10350;51.280;12.400;2024-01-11T07:44:13;35.05;;;30.20;;
20381;SDS011;10350;51.280;12.400;2024-01-11T07:46:39;33.50;;;30.77;;
20381;SDS011;10350;51.280;12.400;2024-01-11T07:49:06;41.25;;;29.42;;
20381;SDS011;10350;51.280;12.400;2024-01-11T07:51:33;34.95;;;31.10;;
20381;SDS011;10350;51.280;12.400;2024-01-11T07:54:03;31.70;;;28.70;;
20381;SDS011;10350;51.280;12.400;2024-01-11T07:56:30;34.05;;;30.35;;
20381;SDS011;10350;51.280;12.400;2024-01-11T07:58:56;32.75;;;29.52;;
20381;SDS011;10350;51.280;12.400;2024-01-11T08:01:22;36.53;;;32.42;;
20381;SDS011;10350;51.280;12.400;2024-01-11T08:03:47;34.83;;;31.67;;
20381;SDS011;10350;51.280;12.400;2024-01-11T08:06:16;34.15;;;30.70;;
20381;SDS011;10350;51.280;12.400;2024-01-11T08:08:42;32.58;;;29.60;;
20381;SDS011;10350;51.280;12.400;2024-01-11T08:11:09;35.25;;;31.50;;
20381;SDS011;10350;51.280;12.400;2024-01-11T08:13:34;33.40;;;29.85;;
20381;SDS011;10350;51.280;12.400;2024-01-11T08:16:02;36.30;;;32.10;;
20381;SDS011;10350;51.280;12.400;2024-01-11T08:18:29;33.40;;;30.10;;
20381;SDS011;10350;51.280;12.400;2024-01-11T08:20:55;39.22;;;34.65;;
20381;SDS011;10350;51.280;12.400;2024-01-11T08:23:21;36.17;;;32.08;;
20381;SDS011;10350;51.280;12.400;2024-01-11T08:25:48;36.00;;;32.38;;
20381;SDS011;10350;51.280;12.400;2024-01-11T08:28:14;33.83;;;30.38;;
20381;SDS011;10350;51.280;12.400;2024-01-11T08:30:40;33.65;;;30.42;;
20381;SDS011;10350;51.280;12.400;2024-01-11T08:33:07;33.85;;;30.60;;
20381;SDS011;10350;51.280;12.400;2024-01-11T08:35:33;33.97;;;30.40;;
20381;SDS011;10350;51.280;12.400;2024-01-11T08:38:00;32.30;;;29.17;;
20381;SDS011;10350;51.280;12.400;2024-01-11T08:40:26;33.10;;;29.92;;
20381;SDS011;10350;51.280;12.400;2024-01-11T08:42:52;28.45;;;26.30;;
20381;SDS011;10350;51.280;12.400;2024-01-11T08:45:18;35.35;;;31.88;;
20381;SDS011;10350;51.280;12.400;2024-01-11T08:47:44;37.00;;;28.15;;
20381;SDS011;10350;51.280;12.400;2024-01-11T08:50:14;30.65;;;27.98;;
20381;SDS011;10350;51.280;12.400;2024-01-11T08:52:40;52.42;;;35.00;;
20381;SDS011;10350;51.280;12.400;2024-01-11T08:55:07;40.13;;;34.92;;
20381;SDS011;10350;51.280;12.400;2024-01-11T08:57:33;44.63;;;34.80;;
20381;SDS011;10350;51.280;12.400;2024-01-11T09:00:01;50.40;;;36.92;;
20381;SDS011;10350;51.280;12.400;2024-01-11T09:02:27;51.08;;;37.97;;
20381;SDS011;10350;51.280;12.400;2024-01-11T09:04:53;38.88;;;34.75;;
20381;SDS011;10350;51.280;12.400;2024-01-11T09:07:18;44.00;;;37.08;;
20381;SDS011;10350;51.280;12.400;2024-01-11T09:09:44;40.80;;;36.58;;
20381;SDS011;10350;51.280;12.400;2024-01-11T09:12:10;43.05;;;38.47;;
20381;SDS011;10350;51.280;12.400;2024-01-11T09:14:36;39.80;;;35.60;;
20381;SDS011;10350;51.280;12.400;2024-01-11T09:17:04;44.90;;;36.35;;
20381;SDS011;10350;51.280;12.400;2024-01-11T09:19:31;49.92;;;37.45;;
20381;SDS011;10350;51.280;12.400;2024-01-11T09:21:58;46.83;;;37.00;;
20381;SDS011;10350;51.280;12.400;2024-01-11T09:24:24;44.58;;;39.20;;
20381;SDS011;10350;51.280;12.400;2024-01-11T09:26:50;53.97;;;43.97;;
20381;SDS011;10350;51.280;12.400;2024-01-11T09:29:16;50.20;;;42.35;;
20381;SDS011;10350;51.280;12.400;2024-01-11T09:31:42;54.30;;;40.72;;
20381;SDS011;10350;51.280;12.400;2024-01-11T09:34:08;51.10;;;41.85;;
20381;SDS011;10350;51.280;12.400;2024-01-11T09:36:34;49.72;;;40.20;;
20381;SDS011;10350;51.280;12.400;2024-01-11T09:39:03;66.20;;;43.25;;
20381;SDS011;10350;51.280;12.400;2024-01-11T09:41:30;52.75;;;41.92;;
20381;SDS011;10350;51.280;12.400;2024-01-11T09:43:57;74.68;;;52.58;;
20381;SDS011;10350;51.280;12.400;2024-01-11T09:46:25;68.28;;;53.97;;
20381;SDS011;10350;51.280;12.400;2024-01-11T09:48:51;68.28;;;53.25;;
20381;SDS011;10350;51.280;12.400;2024-01-11T09:51:19;64.57;;;48.50;;
20381;SDS011;10350;51.280;12.400;2024-01-11T09:53:45;62.58;;;44.75;;
20381;SDS011;10350;51.280;12.400;2024-01-11T09:56:11;60.53;;;45.88;;
20381;SDS011;10350;51.280;12.400;2024-01-11T09:58:37;61.28;;;44.50;;
20381;SDS011;10350;51.280;12.400;2024-01-11T10:01:09;57.42;;;44.03;;
20381;SDS011;10350;51.280;12.400;2024-01-11T10:03:46;60.47;;;44.65;;
20381;SDS011;10350;51.280;12.400;2024-01-11T10:06:12;67.25;;;45.33;;
20381;SDS011;10350;51.280;12.400;2024-01-11T10:08:45;65.63;;;44.08;;
20381;SDS011;10350;51.280;12.400;2024-01-11T10:11:11;70.53;;;45.95;;
20381;SDS011;10350;51.280;12.400;2024-01-11T10:13:37;61.00;;;44.20;;
20381;SDS011;10350;51.280;12.400;2024-01-11T10:16:09;63.67;;;46.20;;
20381;SDS011;10350;51.280;12.400;2024-01-11T10:18:38;59.53;;;42.75;;
20381;SDS011;10350;51.280;12.400;2024-01-11T10:21:04;63.83;;;48.78;;
20381;SDS011;10350;51.280;12.400;2024-01-11T10:23:33;50.03;;;42.17;;
20381;SDS011;10350;51.280;12.400;2024-01-11T10:25:59;50.67;;;41.85;;
20381;SDS011;10350;51.280;12.400;2024-01-11T10:28:25;55.70;;;42.90;;
20381;SDS011;10350;51.280;12.400;2024-01-11T10:30:51;61.75;;;44.95;;
20381;SDS011;10350;51.280;12.400;2024-01-11T10:33:21;65.40;;;44.83;;
20381;SDS011;10350;51.280;12.400;2024-01-11T10:35:47;50.80;;;42.65;;
20381;SDS011;10350;51.280;12.400;2024-01-11T10:38:16;56.45;;;44.58;;
20381;SDS011;10350;51.280;12.400;2024-01-11T10:40:43;51.22;;;40.58;;
20381;SDS011;10350;51.280;12.400;2024-01-11T10:43:10;56.97;;;41.53;;
20381;SDS011;10350;51.280;12.400;2024-01-11T10:45:36;49.33;;;40.85;;
20381;SDS011;10350;51.280;12.400;2024-01-11T10:48:07;48.88;;;42.08;;
20381;SDS011;10350;51.280;12.400;2024-01-11T10:50:38;56.20;;;40.67;;
20381;SDS011;10350;51.280;12.400;2024-01-11T10:55:33;54.13;;;39.42;;
20381;SDS011;10350;51.280;12.400;2024-01-11T10:58:00;48.78;;;38.88;;
20381;SDS011;10350;51.280;12.400;2024-01-11T11:00:27;57.75;;;39.97;;
20381;SDS011;10350;51.280;12.400;2024-01-11T11:02:53;64.35;;;42.67;;
20381;SDS011;10350;51.280;12.400;2024-01-11T11:05:20;62.78;;;42.20;;
20381;SDS011;10350;51.280;12.400;2024-01-11T11:07:50;52.85;;;41.88;;
20381;SDS011;10350;51.280;12.400;2024-01-11T11:10:17;52.60;;;41.22;;
20381;SDS011;10350;51.280;12.400;2024-01-11T11:12:44;69.95;;;60.92;;
20381;SDS011;10350;51.280;12.400;2024-01-11T11:15:13;52.15;;;40.55;;
20381;SDS011;10350;51.280;12.400;2024-01-11T11:17:43;50.95;;;43.40;;
20381;SDS011;10350;51.280;12.400;2024-01-11T11:20:10;51.10;;;44.47;;
20381;SDS011;10350;51.280;12.400;2024-01-11T11:22:41;60.15;;;46.90;;
20381;SDS011;10350;51.280;12.400;2024-01-11T11:25:11;59.83;;;45.65;;
20381;SDS011;10350;51.280;12.400;2024-01-11T11:27:37;52.78;;;45.38;;
20381;SDS011;10350;51.280;12.400;2024-01-11T11:30:03;53.63;;;42.72;;
20381;SDS011;10350;51.280;12.400;2024-01-11T11:32:37;54.90;;;45.45;;
20381;SDS011;10350;51.280;12.400;2024-01-11T11:35:04;47.88;;;39.88;;
20381;SDS011;10350;51.280;12.400;2024-01-11T11:37:30;50.85;;;40.92;;
20381;SDS011;10350;51.280;12.400;2024-01-11T11:39:57;47.00;;;41.10;;
20381;SDS011;10350;51.280;12.400;2024-01-11T11:42:24;51.85;;;41.78;;
20381;SDS011;10350;51.280;12.400;2024-01-11T11:44:51;48.95;;;40.25;;
20381;SDS011;10350;51.280;12.400;2024-01-11T11:47:20;43.60;;;38.70;;
20381;SDS011;10350;51.280;12.400;2024-01-11T11:49:56;55.88;;;43.10;;
20381;SDS011;10350;51.280;12.400;2024-01-11T11:52:26;49.13;;;41.15;;
20381;SDS011;10350;51.280;12.400;2024-01-11T11:54:52;51.28;;;42.67;;
20381;SDS011;10350;51.280;12.400;2024-01-11T11:57:18;48.53;;;41.30;;
20381;SDS011;10350;51.280;12.400;2024-01-11T11:59:43;60.20;;;42.65;;
20381;SDS011;10350;51.280;12.400;2024-01-11T12:02:10;57.00;;;42.92;;
20381;SDS011;10350;51.280;12.400;2024-01-11T12:04:39;66.88;;;43.00;;
20381;SDS011;10350;51.280;12.400;2024-01-11T12:07:05;54.03;;;40.65;;
20381;SDS011;10350;51.280;12.400;2024-01-11T12:09:31;51.33;;;41.95;;
20381;SDS011;10350;51.280;12.400;2024-01-11T12:11:57;48.95;;;40.38;;
20381;SDS011;10350;51.280;12.400;2024-01-11T12:14:23;52.40;;;40.42;;
20381;SDS011;10350;51.280;12.400;2024-01-11T12:16:56;50.10;;;40.92;;
20381;SDS011;10350;51.280;12.400;2024-01-11T12:19:23;51.42;;;41.20;;
20381;SDS011;10350;51.280;12.400;2024-01-11T12:21:49;45.88;;;39.42;;
20381;SDS011;10350;51.280;12.400;2024-01-11T12:24:15;46.40;;;41.03;;
20381;SDS011;10350;51.280;12.400;2024-01-11T12:26:42;48.97;;;43.85;;
20381;SDS011;10350;51.280;12.400;2024-01-11T12:29:08;55.20;;;42.83;;
20381;SDS011;10350;51.280;12.400;2024-01-11T12:31:34;50.65;;;42.83;;
20381;SDS011;10350;51.280;12.400;2024-01-11T12:34:00;52.92;;;45.63;;
20381;SDS011;10350;51.280;12.400;2024-01-11T12:36:27;53.33;;;45.72;;
20381;SDS011;10350;51.280;12.400;2024-01-11T12:38:53;50.90;;;43.55;;
20381;SDS011;10350;51.280;12.400;2024-01-11T12:41:22;56.03;;;45.15;;
20381;SDS011;10350;51.280;12.400;2024-01-11T12:43:48;50.05;;;44.72;;
20381;SDS011;10350;51.280;12.400;2024-01-11T12:46:15;46.60;;;41.97;;
20381;SDS011;10350;51.280;12.400;2024-01-11T12:48:42;49.00;;;43.60;;
20381;SDS011;10350;51.280;12.400;2024-01-11T12:51:08;51.10;;;44.17;;
20381;SDS011;10350;51.280;12.400;2024-01-11T12:53:35;48.58;;;43.28;;
20381;SDS011;10350;51.280;12.400;2024-01-11T12:56:02;53.88;;;43.72;;
20381;SDS011;10350;51.280;12.400;2024-01-11T12:58:28;69.32;;;50.45;;
20381;SDS011;10350;51.280;12.400;2024-01-11T13:00:54;55.83;;;45.08;;
20381;SDS011;10350;51.280;12.400;2024-01-11T13:03:22;50.55;;;45.25;;
20381;SDS011;10350;51.280;12.400;2024-01-11T13:05:48;62.05;;;46.83;;
20381;SDS011;10350;51.280;12.400;2024-01-11T13:10:42;52.13;;;43.95;;
20381;SDS011;10350;51.280;12.400;2024-01-11T13:13:08;48.38;;;43.17;;
20381;SDS011;10350;51.280;12.400;2024-01-11T13:15:33;49.35;;;41.33;;
20381;SDS011;10350;51.280;12.400;2024-01-11T13:18:01;53.20;;;42.28;;
20381;SDS011;10350;51.280;12.400;2024-01-11T13:20:27;50.13;;;39.95;;
20381;SDS011;10350;51.280;12.400;2024-01-11T13:25:39;48.38;;;38.15;;
20381;SDS011;10350;51.280;12.400;2024-01-11T13:28:05;49.65;;;39.65;;
20381;SDS011;10350;51.280;12.400;2024-01-11T13:30:31;53.50;;;41.13;;
20381;SDS011;10350;51.280;12.400;2024-01-11T13:32:57;47.85;;;38.10;;
20381;SDS011;10350;51.280;12.400;2024-01-11T13:35:23;49.78;;;38.20;;
20381;SDS011;10350;51.280;12.400;2024-01-11T13:37:50;44.30;;;38.53;;
20381;SDS011;10350;51.280;12.400;2024-01-11T13:40:19;42.50;;;37.40;;
20381;SDS011;10350;51.280;12.400;2024-01-11T13:42:45;46.45;;;37.53;;
20381;SDS011;10350;51.280;12.400;2024-01-11T13:45:11;44.58;;;37.83;;
20381;SDS011;10350;51.280;12.400;2024-01-11T13:47:37;44.15;;;39.40;;
20381;SDS011;10350;51.280;12.400;2024-01-11T13:50:03;55.42;;;38.97;;
20381;SDS011;10350;51.280;12.400;2024-01-11T13:52:29;46.60;;;38.28;;
20381;SDS011;10350;51.280;12.400;2024-01-11T13:54:55;49.55;;;39.00;;
20381;SDS011;10350;51.280;12.400;2024-01-11T13:57:21;45.38;;;38.20;;
20381;SDS011;10350;51.280;12.400;2024-01-11T13:59:47;53.55;;;39.65;;
20381;SDS011;10350;51.280;12.400;2024-01-11T14:02:14;49.80;;;39.30;;
20381;SDS011;10350;51.280;12.400;2024-01-11T14:04:47;57.38;;;40.75;;
20381;SDS011;10350;51.280;12.400;2024-01-11T14:07:13;52.97;;;37.58;;
20381;SDS011;10350;51.280;12.400;2024-01-11T14:09:39;48.30;;;40.78;;
20381;SDS011;10350;51.280;12.400;2024-01-11T14:12:07;58.20;;;41.35;;
20381;SDS011;10350;51.280;12.400;2024-01-11T14:14:34;53.58;;;40.35;;